createdAt,value
2023-05-25T00:01:38.692Z,9.18
2023-05-25T00:04:05.482Z,7.85
2023-05-25T00:06:32.896Z,8.82
2023-05-25T00:08:59.543Z,7.75
2023-05-25T00:11:27.140Z,8.27
2023-05-25T00:13:53.946Z,8.73
2023-05-25T00:16:20.892Z,8.32
2023-05-25T00:18:48.725Z,7.85
2023-05-25T00:21:16.240Z,7.70
2023-05-25T00:23:43.304Z,8.10
2023-05-25T00:26:10.030Z,7.47
2023-05-25T00:28:36.636Z,8.80
2023-05-25T00:31:03.418Z,8.32
2023-05-25T00:33:30.425Z,8.88
2023-05-25T00:35:57.415Z,8.10
2023-05-25T00:38:24.176Z,7.68
2023-05-25T00:40:56.452Z,8.20
2023-05-25T00:43:23.203Z,7.93
2023-05-25T00:45:51.663Z,8.13
2023-05-25T00:48:18.870Z,8.40
2023-05-25T00:50:45.995Z,7.70
2023-05-25T00:53:14.071Z,8.13
2023-05-25T00:56:02.724Z,7.15
2023-05-25T00:58:33.144Z,7.70
2023-05-25T01:01:00.625Z,7.70
2023-05-25T01:03:29.777Z,8.40
2023-05-25T01:05:58.395Z,8.05
2023-05-25T01:08:26.237Z,6.90
2023-05-25T01:10:54.031Z,8.65
2023-05-25T01:13:21.590Z,7.72
2023-05-25T01:15:49.817Z,8.32
2023-05-25T01:18:18.175Z,8.30
2023-05-25T01:21:20.290Z,7.88
2023-05-25T01:23:53.485Z,8.32
2023-05-25T01:26:23.798Z,8.52
2023-05-25T01:28:53.231Z,7.80
2023-05-25T01:31:23.382Z,8.27
2023-05-25T01:33:51.774Z,7.75
2023-05-25T01:36:19.415Z,7.90
2023-05-25T01:38:46.391Z,7.95
2023-05-25T01:41:13.052Z,8.05
2023-05-25T01:43:40.365Z,8.10
2023-05-25T01:46:31.900Z,7.93
2023-05-25T01:49:19.556Z,8.68
2023-05-25T01:52:07.773Z,8.05
2023-05-25T01:54:44.660Z,9.27
2023-05-25T01:57:15.146Z,8.48
2023-05-25T01:59:46.516Z,9.10
2023-05-25T02:02:18.793Z,8.40
2023-05-25T02:04:46.303Z,8.65
2023-05-25T02:07:13.092Z,8.30
2023-05-25T02:09:39.873Z,8.45
2023-05-25T02:12:06.727Z,8.52
2023-05-25T02:14:33.342Z,8.45
2023-05-25T02:17:02.426Z,8.93
2023-05-25T02:19:29.942Z,9.10
2023-05-25T02:21:56.743Z,8.48
2023-05-25T02:24:24.952Z,8.20
2023-05-25T02:29:20.688Z,9.27
2023-05-25T02:31:47.667Z,9.77
2023-05-25T02:34:15.404Z,9.00
2023-05-25T02:36:43.415Z,9.63
2023-05-25T02:39:10.990Z,8.85
2023-05-25T02:41:38.912Z,7.97
2023-05-25T02:44:07.250Z,8.80
2023-05-25T02:46:34.360Z,9.80
2023-05-25T02:49:01.480Z,8.40
2023-05-25T02:51:28.646Z,9.30
2023-05-25T02:56:24.499Z,9.38
2023-05-25T02:58:51.386Z,8.75
2023-05-25T03:01:30.825Z,9.07
2023-05-25T03:03:57.680Z,8.18
2023-05-25T03:06:26.567Z,7.93
2023-05-25T03:09:09.673Z,8.73
2023-05-25T03:14:05.052Z,8.38
2023-05-25T03:16:36.313Z,9.27
2023-05-25T03:19:05.490Z,8.70
2023-05-25T03:21:34.378Z,8.73
2023-05-25T03:24:01.017Z,9.57
2023-05-25T03:26:28.883Z,8.75
2023-05-25T03:28:55.629Z,8.45
2023-05-25T03:31:23.329Z,8.80
2023-05-25T03:33:50.070Z,9.40
2023-05-25T03:36:18.156Z,8.35
2023-05-25T03:38:45.119Z,9.05
2023-05-25T03:41:11.825Z,8.98
2023-05-25T03:43:38.611Z,8.75
2023-05-25T03:46:07.083Z,8.73
2023-05-25T03:48:33.755Z,9.15
2023-05-25T03:51:00.356Z,9.25
2023-05-25T03:53:27.294Z,10.10
2023-05-25T03:55:54.076Z,9.90
2023-05-25T03:58:20.860Z,9.48
2023-05-25T04:00:51.455Z,9.82
2023-05-25T04:03:18.454Z,9.32
2023-05-25T04:05:48.104Z,9.93
2023-05-25T04:08:24.836Z,9.98
2023-05-25T04:10:51.426Z,10.27
2023-05-25T04:13:18.038Z,10.77
2023-05-25T04:15:44.834Z,10.38
2023-05-25T04:18:16.271Z,11.30
2023-05-25T04:20:43.096Z,10.43
2023-05-25T04:23:12.613Z,10.38
2023-05-25T04:25:42.161Z,10.30
2023-05-25T04:28:09.047Z,10.05
2023-05-25T04:30:47.982Z,10.63
2023-05-25T04:33:32.302Z,11.70
2023-05-25T04:36:01.726Z,10.38
2023-05-25T04:38:30.612Z,10.43
2023-05-25T04:41:01.986Z,10.60
2023-05-25T04:43:29.974Z,10.82
2023-05-25T04:45:59.813Z,10.48
2023-05-25T04:48:35.141Z,10.70
2023-05-25T04:51:04.351Z,11.65
2023-05-25T04:53:32.584Z,11.35
2023-05-25T04:55:59.446Z,11.18
2023-05-25T04:58:26.342Z,11.02
2023-05-25T05:00:52.983Z,11.32
2023-05-25T05:03:19.782Z,11.43
2023-05-25T05:05:47.043Z,9.85
2023-05-25T05:08:19.290Z,11.32
2023-05-25T05:10:46.070Z,11.13
2023-05-25T05:13:14.119Z,11.13
2023-05-25T05:15:41.721Z,10.33
2023-05-25T05:18:08.793Z,10.38
2023-05-25T05:20:36.450Z,10.48
2023-05-25T05:23:03.325Z,11.85
2023-05-25T05:25:30.260Z,10.73
2023-05-25T05:27:57.302Z,11.00
2023-05-25T05:30:27.639Z,10.18
2023-05-25T05:32:55.816Z,11.10
2023-05-25T05:35:25.826Z,9.93
2023-05-25T05:38:00.660Z,10.15
2023-05-25T05:40:27.364Z,9.45
2023-05-25T05:42:54.099Z,10.23
2023-05-25T05:45:21.396Z,9.65
2023-05-25T05:47:48.090Z,8.68
2023-05-25T05:50:15.048Z,8.95
2023-05-25T05:52:41.912Z,9.27
2023-05-25T05:55:10.829Z,9.70
2023-05-25T05:57:39.736Z,8.20
2023-05-25T06:00:08.783Z,8.98
2023-05-25T06:02:45.505Z,9.23
2023-05-25T06:05:18.563Z,8.30
2023-05-25T06:07:45.262Z,9.07
2023-05-25T06:10:13.183Z,8.75
2023-05-25T06:12:40.063Z,8.27
2023-05-25T06:15:08.052Z,8.35
2023-05-25T06:17:37.282Z,8.15
2023-05-25T06:20:06.599Z,8.27
2023-05-25T06:22:33.599Z,9.25
2023-05-25T06:25:01.666Z,7.95
2023-05-25T06:27:28.496Z,7.60
2023-05-25T06:29:55.682Z,8.25
2023-05-25T06:32:23.359Z,8.52
2023-05-25T06:34:50.090Z,7.82
2023-05-25T06:37:17.242Z,10.40
2023-05-25T06:39:44.225Z,10.55
2023-05-25T06:42:11.790Z,9.25
2023-05-25T06:44:49.704Z,9.38
2023-05-25T06:47:16.356Z,9.95
2023-05-25T06:49:43.161Z,9.88
2023-05-25T06:52:09.989Z,9.75
2023-05-25T06:54:36.943Z,10.75
2023-05-25T06:57:03.673Z,10.82
2023-05-25T06:59:31.074Z,10.20
2023-05-25T07:01:59.087Z,10.48
2023-05-25T07:04:26.514Z,10.27
2023-05-25T07:06:53.316Z,11.70
2023-05-25T07:09:20.126Z,10.75
2023-05-25T07:12:00.331Z,10.32
2023-05-25T07:14:27.076Z,11.38
2023-05-25T07:16:53.811Z,10.77
2023-05-25T07:19:20.630Z,10.05
2023-05-25T07:21:49.324Z,11.40
2023-05-25T07:24:16.412Z,12.07
2023-05-25T07:26:44.463Z,11.25
2023-05-25T07:29:12.354Z,12.25
2023-05-25T07:31:39.035Z,11.38
2023-05-25T07:34:05.803Z,11.32
2023-05-25T07:36:32.718Z,11.40
2023-05-25T07:38:59.424Z,11.73
2023-05-25T07:41:26.349Z,10.88
2023-05-25T07:43:53.246Z,11.00
2023-05-25T07:46:25.070Z,11.52
2023-05-25T07:48:52.445Z,11.52
2023-05-25T07:51:19.168Z,10.88
2023-05-25T07:53:45.831Z,11.68
2023-05-25T07:56:12.515Z,11.55
2023-05-25T07:58:39.178Z,12.43
2023-05-25T08:01:06.335Z,10.80
2023-05-25T08:03:48.091Z,11.85
2023-05-25T08:06:15.985Z,10.73
2023-05-25T08:08:44.940Z,12.02
2023-05-25T08:11:11.987Z,12.18
2023-05-25T08:13:39.155Z,11.45
2023-05-25T08:16:06.963Z,11.43
2023-05-25T08:18:33.695Z,11.02
2023-05-25T08:21:01.086Z,11.77
2023-05-25T08:23:27.774Z,11.32
2023-05-25T08:25:54.404Z,12.45
2023-05-25T08:28:22.400Z,12.02
2023-05-25T08:30:49.236Z,11.95
2023-05-25T08:33:15.880Z,12.20
2023-05-25T08:35:43.275Z,12.30
2023-05-25T08:38:10.178Z,12.70
2023-05-25T08:40:41.433Z,12.65
2023-05-25T08:43:08.212Z,12.60
2023-05-25T08:45:36.491Z,12.82
2023-05-25T08:48:12.022Z,12.15
2023-05-25T08:50:43.548Z,13.40
2023-05-25T08:53:12.240Z,13.65
2023-05-25T08:55:43.431Z,13.20
2023-05-25T08:58:19.452Z,14.05
2023-05-25T09:00:56.874Z,13.52
2023-05-25T09:03:23.879Z,14.20
2023-05-25T09:05:51.154Z,14.57
2023-05-25T09:08:18.550Z,14.05
2023-05-25T09:10:45.587Z,13.75
2023-05-25T09:13:21.953Z,14.13
2023-05-25T09:15:52.241Z,13.27
2023-05-25T09:20:47.629Z,14.00
2023-05-25T09:23:15.162Z,14.13
2023-05-25T09:25:41.920Z,14.18
2023-05-25T09:28:25.765Z,13.75
2023-05-25T09:30:55.985Z,14.15
2023-05-25T09:33:22.940Z,15.50
2023-05-25T09:35:51.539Z,14.88
2023-05-25T09:38:18.909Z,12.75
2023-05-25T09:40:46.206Z,12.75
2023-05-25T09:43:21.969Z,13.25
2023-05-25T09:45:55.812Z,11.93
2023-05-25T09:48:23.013Z,12.57
2023-05-25T09:50:51.312Z,12.02
2023-05-25T09:53:18.399Z,12.23
2023-05-25T09:55:53.925Z,12.50
2023-05-25T09:58:27.622Z,12.77
2023-05-25T10:00:55.421Z,12.40
2023-05-25T10:03:22.654Z,10.77
2023-05-25T10:05:49.780Z,10.05
2023-05-25T10:08:19.926Z,9.95
2023-05-25T10:10:50.267Z,10.30
2023-05-25T10:13:29.197Z,12.20
2023-05-25T10:15:57.933Z,10.85
2023-05-25T10:18:28.034Z,9.93
2023-05-25T10:21:03.191Z,8.90
2023-05-25T10:23:41.755Z,8.88
2023-05-25T10:26:09.925Z,8.35
2023-05-25T10:28:39.473Z,7.68
2023-05-25T10:33:34.100Z,7.97
2023-05-25T10:36:10.879Z,7.63
2023-05-25T10:38:40.628Z,8.13
2023-05-25T10:43:39.665Z,7.18
2023-05-25T10:46:06.961Z,7.20
2023-05-25T10:48:40.237Z,7.22
2023-05-25T10:51:09.042Z,6.85
2023-05-25T10:53:37.785Z,6.75
2023-05-25T10:56:06.090Z,6.30
2023-05-25T10:58:34.213Z,6.00
2023-05-25T11:01:06.637Z,5.20
2023-05-25T11:04:14.216Z,5.50
2023-05-25T11:06:40.853Z,5.40
2023-05-25T11:09:08.203Z,5.38
2023-05-25T11:11:59.574Z,5.20
2023-05-25T11:14:36.001Z,5.22
2023-05-25T11:17:16.133Z,5.50
2023-05-25T11:19:43.916Z,4.95
2023-05-25T11:22:21.095Z,5.85
2023-05-25T11:24:49.129Z,5.25
2023-05-25T11:27:15.889Z,5.97
2023-05-25T11:29:42.544Z,5.70
2023-05-25T11:32:14.486Z,5.95
2023-05-25T11:34:46.737Z,5.75
2023-05-25T11:37:16.799Z,6.07
2023-05-25T11:39:50.355Z,5.75
2023-05-25T11:42:17.810Z,5.63
2023-05-25T11:44:44.744Z,6.50
2023-05-25T11:47:18.853Z,5.60
2023-05-25T11:49:47.721Z,5.70
2023-05-25T11:52:18.625Z,5.20
2023-05-25T11:54:46.393Z,5.93
2023-05-25T11:57:18.239Z,4.85
2023-05-25T12:00:01.225Z,6.07
2023-05-25T12:02:28.057Z,5.15
2023-05-25T12:05:02.463Z,5.15
2023-05-25T12:07:37.601Z,4.85
2023-05-25T12:10:08.850Z,4.65
2023-05-25T12:12:38.938Z,5.22
2023-05-25T12:15:06.189Z,5.15
2023-05-25T12:17:34.062Z,4.82
2023-05-25T12:20:01.317Z,5.05
2023-05-25T12:22:28.278Z,4.70
2023-05-25T12:24:54.889Z,4.57
2023-05-25T12:27:24.630Z,5.07
2023-05-25T12:29:53.164Z,4.38
2023-05-25T12:32:19.943Z,5.15
2023-05-25T12:34:46.951Z,5.00
2023-05-25T12:37:21.791Z,4.80
2023-05-25T12:39:48.826Z,5.30
2023-05-25T12:42:16.993Z,5.10
2023-05-25T12:44:46.565Z,4.93
2023-05-25T12:47:14.774Z,5.10
2023-05-25T12:49:45.058Z,5.57
2023-05-25T12:52:32.647Z,5.05
2023-05-25T12:55:18.554Z,5.45
2023-05-25T12:57:47.074Z,5.03
2023-05-25T13:00:14.421Z,5.57
2023-05-25T13:02:47.968Z,5.50
2023-05-25T13:05:28.556Z,5.40
2023-05-25T13:07:57.380Z,4.75
2023-05-25T13:10:24.483Z,4.93
2023-05-25T13:12:52.015Z,4.82
2023-05-25T13:15:21.126Z,4.00
2023-05-25T13:17:49.100Z,5.35
2023-05-25T13:20:19.115Z,5.15
2023-05-25T13:22:47.014Z,4.70
2023-05-25T13:25:14.631Z,4.43
2023-05-25T13:27:47.778Z,4.97
2023-05-25T13:30:15.702Z,5.10
2023-05-25T13:32:46.546Z,4.70
2023-05-25T13:35:19.374Z,4.53
2023-05-25T13:37:46.326Z,4.72
2023-05-25T13:40:13.594Z,4.90
2023-05-25T13:42:40.663Z,4.60
2023-05-25T13:45:07.963Z,4.70
2023-05-25T13:47:35.051Z,4.65
2023-05-25T13:50:08.665Z,5.22
2023-05-25T13:52:38.346Z,5.93
2023-05-25T13:55:05.467Z,5.22
2023-05-25T13:57:32.148Z,5.25
2023-05-25T13:59:58.708Z,5.43
2023-05-25T14:02:25.410Z,5.40
2023-05-25T14:04:52.068Z,5.57
2023-05-25T14:07:18.717Z,5.53
2023-05-25T14:09:46.517Z,4.88
2023-05-25T14:12:14.362Z,4.90
2023-05-25T14:14:41.254Z,4.68
2023-05-25T14:17:07.937Z,4.57
2023-05-25T14:19:35.348Z,4.57
2023-05-25T14:22:12.466Z,5.55
2023-05-25T14:24:40.472Z,4.50
2023-05-25T14:27:08.705Z,4.30
2023-05-25T14:29:35.474Z,4.57
2023-05-25T14:32:02.204Z,4.40
2023-05-25T14:34:29.417Z,4.50
2023-05-25T14:36:56.645Z,4.65
2023-05-25T14:39:23.315Z,4.85
2023-05-25T14:41:50.290Z,4.78
2023-05-25T14:44:17.915Z,4.70
2023-05-25T14:46:47.181Z,4.88
2023-05-25T14:49:13.948Z,4.30
2023-05-25T14:51:40.616Z,4.60
2023-05-25T14:54:08.061Z,4.50
2023-05-25T14:56:35.486Z,5.03
2023-05-25T14:59:02.146Z,4.40
2023-05-25T15:01:29.523Z,4.07
2023-05-25T15:03:56.666Z,4.97
2023-05-25T15:06:23.578Z,4.53
2023-05-25T15:08:50.369Z,4.47
2023-05-25T15:11:18.042Z,4.68
2023-05-25T15:13:44.892Z,4.55
2023-05-25T15:16:12.740Z,4.03
2023-05-25T15:18:39.496Z,6.13
2023-05-25T15:21:06.319Z,7.70
2023-05-25T15:23:33.037Z,4.88
2023-05-25T15:26:04.151Z,4.80
2023-05-25T15:28:31.372Z,4.88
2023-05-25T15:30:59.464Z,5.10
2023-05-25T15:36:10.645Z,4.43
2023-05-25T15:38:37.226Z,4.93
2023-05-25T15:41:03.984Z,5.05
2023-05-25T15:43:30.649Z,4.97
2023-05-25T15:45:57.333Z,4.50
2023-05-25T15:48:26.185Z,5.25
2023-05-25T15:50:53.124Z,4.93
2023-05-25T15:53:20.129Z,4.60
2023-05-25T15:55:47.199Z,4.28
2023-05-25T15:58:14.052Z,5.13
2023-05-25T16:00:40.729Z,5.10
2023-05-25T16:03:07.396Z,4.90
2023-05-25T16:05:34.358Z,4.80
2023-05-25T16:08:01.125Z,4.85
2023-05-25T16:10:27.777Z,5.00
2023-05-25T16:12:54.426Z,4.95
2023-05-25T16:15:22.894Z,4.75
2023-05-25T16:17:49.474Z,4.80
2023-05-25T16:20:16.361Z,4.57
2023-05-25T16:22:43.148Z,5.13
2023-05-25T16:25:12.818Z,4.90
2023-05-25T16:27:39.571Z,4.55
2023-05-25T16:30:06.912Z,5.00
2023-05-25T16:32:33.538Z,6.03
2023-05-25T16:35:00.397Z,5.32
2023-05-25T16:37:27.434Z,5.03
2023-05-25T16:39:54.092Z,5.03
2023-05-25T16:42:20.735Z,5.43
2023-05-25T16:44:47.352Z,5.22
2023-05-25T16:47:13.944Z,5.55
2023-05-25T16:49:40.706Z,5.57
2023-05-25T16:52:07.405Z,4.63
2023-05-25T16:54:34.018Z,5.40
2023-05-25T16:57:02.176Z,5.03
2023-05-25T16:59:28.897Z,4.82
2023-05-25T17:01:55.942Z,4.90
2023-05-25T17:04:25.516Z,4.85
2023-05-25T17:06:52.807Z,4.95
2023-05-25T17:09:19.479Z,6.30
2023-05-25T17:11:46.173Z,5.38
2023-05-25T17:14:13.133Z,5.53
2023-05-25T17:16:39.944Z,5.78
2023-05-25T17:19:06.694Z,5.53
2023-05-25T17:21:34.867Z,5.28
2023-05-25T17:24:01.545Z,5.50
2023-05-25T17:26:28.113Z,6.05
2023-05-25T17:28:54.926Z,5.50
2023-05-25T17:31:21.651Z,5.95
2023-05-25T17:33:48.319Z,5.80
2023-05-25T17:36:14.971Z,6.38
2023-05-25T17:38:43.549Z,5.80
2023-05-25T17:41:10.467Z,6.00
2023-05-25T17:43:37.185Z,5.55
2023-05-25T17:46:03.952Z,6.35
2023-05-25T17:48:30.661Z,6.10
2023-05-25T17:50:57.367Z,5.65
2023-05-25T17:53:23.963Z,5.80
2023-05-25T17:55:50.648Z,6.07
2023-05-25T17:58:17.324Z,5.93
2023-05-25T18:00:44.116Z,5.60
2023-05-25T18:03:12.057Z,6.03
2023-05-25T18:05:39.055Z,6.35
2023-05-25T18:08:05.809Z,5.88
2023-05-25T18:10:32.581Z,6.28
2023-05-25T18:12:59.208Z,5.72
2023-05-25T18:15:25.845Z,6.30
2023-05-25T18:17:52.617Z,6.00
2023-05-25T18:20:19.356Z,5.35
2023-05-25T18:22:45.946Z,6.68
2023-05-25T18:25:12.632Z,6.10
2023-05-25T18:27:39.223Z,5.90
2023-05-25T18:30:06.557Z,5.25
2023-05-25T18:32:33.230Z,5.63
2023-05-25T18:34:59.841Z,5.30
2023-05-25T18:37:27.409Z,5.47
2023-05-25T18:39:54.305Z,5.38
2023-05-25T18:42:20.900Z,5.75
2023-05-25T18:44:48.517Z,5.57
2023-05-25T18:47:15.115Z,5.55
2023-05-25T18:49:42.053Z,5.22
2023-05-25T18:52:10.523Z,5.28
2023-05-25T18:54:39.198Z,6.07
2023-05-25T18:57:07.282Z,6.55
2023-05-25T18:59:36.996Z,5.47
2023-05-25T19:02:04.686Z,4.95
2023-05-25T19:04:31.479Z,5.30
2023-05-25T19:06:58.133Z,5.30
2023-05-25T19:09:24.964Z,5.78
2023-05-25T19:11:51.717Z,6.03
2023-05-25T19:14:18.675Z,5.50
2023-05-25T19:16:47.300Z,6.00
2023-05-25T19:19:15.382Z,5.35
2023-05-25T19:21:41.936Z,5.50
2023-05-25T19:24:09.966Z,5.75
2023-05-25T19:26:37.857Z,6.35
2023-05-25T19:29:04.912Z,6.28
2023-05-25T19:31:31.614Z,6.00
2023-05-25T19:33:58.366Z,5.57
2023-05-25T19:36:24.998Z,6.25
2023-05-25T19:38:51.786Z,6.13
2023-05-25T19:41:18.483Z,5.50
2023-05-25T19:43:45.287Z,5.93
2023-05-25T19:46:12.063Z,7.03
2023-05-25T19:48:40.082Z,6.00
2023-05-25T19:51:06.928Z,6.28
2023-05-25T19:53:33.636Z,6.55
2023-05-25T19:56:00.242Z,6.22
2023-05-25T19:58:26.868Z,6.22
2023-05-25T20:00:53.945Z,7.35
2023-05-25T20:03:21.198Z,6.00
2023-05-25T20:05:48.191Z,6.32
2023-05-25T20:08:14.951Z,5.90
2023-05-25T20:10:43.975Z,5.28
2023-05-25T20:13:10.829Z,7.45
2023-05-25T20:15:37.429Z,5.75
2023-05-25T20:18:04.297Z,5.38
2023-05-25T20:20:31.259Z,6.65
2023-05-25T20:22:58.051Z,6.43
2023-05-25T20:25:24.835Z,6.57
2023-05-25T20:27:51.559Z,5.45
2023-05-25T20:30:18.365Z,6.20
2023-05-25T20:32:45.051Z,5.55
2023-05-25T20:35:13.216Z,5.80
2023-05-25T20:37:40.065Z,5.75
2023-05-25T20:40:07.163Z,5.00
2023-05-25T20:42:33.843Z,6.25
2023-05-25T20:45:00.566Z,5.85
2023-05-25T20:47:27.558Z,4.97
2023-05-25T20:49:54.252Z,5.18
2023-05-25T20:52:21.428Z,4.30
2023-05-25T20:54:48.187Z,5.38
2023-05-25T20:57:15.032Z,5.22
2023-05-25T20:59:41.711Z,5.20
2023-05-25T21:02:08.434Z,5.85
2023-05-25T21:04:35.126Z,4.40
2023-05-25T21:07:01.804Z,5.20
2023-05-25T21:09:28.431Z,6.15
2023-05-25T21:11:54.989Z,4.88
2023-05-25T21:14:21.768Z,5.38
2023-05-25T21:16:50.021Z,3.85
2023-05-25T21:19:17.108Z,4.53
2023-05-25T21:21:43.949Z,4.68
2023-05-25T21:24:10.560Z,5.07
2023-05-25T21:26:37.306Z,5.80
2023-05-25T21:29:03.877Z,5.85
2023-05-25T21:31:30.459Z,6.10
2023-05-25T21:33:58.259Z,5.18
2023-05-25T21:36:25.975Z,4.82
2023-05-25T21:38:52.613Z,5.28
2023-05-25T21:41:19.442Z,4.90
2023-05-25T21:43:46.032Z,4.88
2023-05-25T21:46:12.676Z,5.80
2023-05-25T21:48:39.268Z,4.80
2023-05-25T21:51:06.012Z,5.15
2023-05-25T21:53:32.855Z,4.75
2023-05-25T21:55:59.434Z,5.03
2023-05-25T21:58:26.066Z,4.60
2023-05-25T22:00:52.791Z,4.85
2023-05-25T22:03:19.501Z,4.15
2023-05-25T22:05:46.573Z,5.10
2023-05-25T22:08:13.505Z,6.85
2023-05-25T22:10:40.095Z,4.75
2023-05-25T22:13:07.146Z,4.88
2023-05-25T22:15:34.151Z,6.30
2023-05-25T22:18:01.543Z,4.50
2023-05-25T22:20:28.324Z,5.25
2023-05-25T22:22:54.941Z,5.50
2023-05-25T22:25:21.533Z,5.88
2023-05-25T22:27:48.192Z,4.90
2023-05-25T22:30:15.533Z,5.85
2023-05-25T22:32:42.282Z,5.63
2023-05-25T22:35:09.240Z,5.22
2023-05-25T22:37:36.020Z,6.13
2023-05-25T22:40:02.731Z,4.35
2023-05-25T22:42:29.369Z,5.13
2023-05-25T22:44:56.109Z,5.82
2023-05-25T22:47:22.850Z,5.55
2023-05-25T22:49:49.501Z,5.45
2023-05-25T22:52:16.142Z,5.10
2023-05-25T22:54:43.062Z,5.15
2023-05-25T22:57:10.469Z,6.78
2023-05-25T22:59:37.242Z,5.47
2023-05-25T23:02:04.274Z,6.15
2023-05-25T23:04:31.176Z,5.53
2023-05-25T23:06:57.818Z,5.65
2023-05-25T23:09:24.466Z,6.53
2023-05-25T23:11:51.078Z,6.95
2023-05-25T23:14:17.976Z,5.97
2023-05-25T23:16:48.473Z,5.57
2023-05-25T23:19:16.649Z,6.38
2023-05-25T23:21:43.878Z,7.70
2023-05-25T23:24:10.517Z,6.15
2023-05-25T23:26:37.140Z,6.40
2023-05-25T23:29:03.801Z,6.32
2023-05-25T23:31:30.647Z,7.70
2023-05-25T23:33:57.340Z,5.82
2023-05-25T23:36:26.077Z,5.85
2023-05-25T23:38:52.965Z,6.47
2023-05-25T23:41:19.981Z,5.72
2023-05-25T23:43:46.678Z,5.72
2023-05-25T23:46:16.232Z,5.45
2023-05-25T23:51:10.400Z,5.32
2023-05-25T23:53:38.462Z,6.35
2023-05-25T23:56:05.397Z,5.95
2023-05-25T23:58:32.133Z,6.07
